Time;durP1;ratioP1;P1;durP2;ratioP2;P2;SDS_P1;SDS_P2;PMS_P1;PMS_P2;Temp;Humidity;BMP_temperature;BMP_pressure;BME280_temperature;BME280_humidity;BME280_pressure;Samples;Min_cycle;Max_cycle;Signal;HPM_P1;HPM_P2
2021/08/12 00:01:05;;;;;;;;;;;20.00;99.90;;;;;;4157722;28;19920;-72
2021/08/12 00:03:05;;;;;;;;;;;20.00;99.90;;;;;;4159648;28;19917;-72
2021/08/12 00:05:07;;;;;;;;;;;20.00;99.90;;;;;;4190143;28;19924;-72
2021/08/12 00:07:08;;;;;;;;;;;19.90;99.90;;;;;;4159987;28;19924;-72
2021/08/12 00:09:09;;;;;;;;;;;19.90;99.90;;;;;;4158354;28;19971;-72
2021/08/12 00:11:09;;;;;;;;;;;19.90;99.90;;;;;;4157412;28;20320;-72
2021/08/12 00:13:10;;;;;;;;;;;19.90;99.90;;;;;;4160516;28;19913;-72
2021/08/12 00:15:10;;;;;;;;;;;19.90;99.90;;;;;;4158631;28;19924;-72
2021/08/12 00:17:11;;;;;;;;;;;19.80;99.90;;;;;;4190805;28;19912;-72
2021/08/12 00:19:12;;;;;;;;;;;19.90;99.90;;;;;;4159123;28;19913;-72
2021/08/12 00:21:12;;;;;;;;;;;19.80;99.90;;;;;;4158015;28;19944;-72
2021/08/12 00:23:13;;;;;;;;;;;19.80;99.90;;;;;;4158996;28;19913;-72
2021/08/12 00:25:13;;;;;;;;;;;19.80;99.90;;;;;;4156026;28;19913;-72
2021/08/12 00:27:14;;;;;;;;;;;19.80;99.90;;;;;;4190196;28;20269;-71
2021/08/12 00:29:14;;;;;;;;;;;19.80;99.90;;;;;;4161966;28;19978;-72
2021/08/12 00:31:15;;;;;;;;;;;19.80;99.90;;;;;;4156629;28;19948;-72
2021/08/12 00:33:15;;;;;;;;;;;19.70;99.90;;;;;;4189048;28;19958;-72
2021/08/12 00:35:16;;;;;;;;;;;19.70;99.90;;;;;;4159007;28;19913;-72
2021/08/12 00:37:17;;;;;;;;;;;19.70;99.90;;;;;;4159039;28;19916;-72
2021/08/12 00:39:18;;;;;;;;;;;19.70;99.90;;;;;;4158657;28;19913;-72
2021/08/12 00:41:19;;;;;;;;;;;19.60;99.90;;;;;;4190341;28;20048;-71
2021/08/12 00:43:20;;;;;;;;;;;19.70;99.90;;;;;;4157089;28;19917;-71
2021/08/12 00:45:20;;;;;;;;;;;19.60;99.90;;;;;;4158166;28;19928;-72
2021/08/12 00:47:21;;;;;;;;;;;19.60;99.90;;;;;;4157683;28;19920;-72
2021/08/12 00:49:22;;;;;;;;;;;19.60;99.90;;;;;;4158387;28;20269;-72
2021/08/12 00:51:22;;;;;;;;;;;19.60;99.90;;;;;;4159020;28;19917;-72
2021/08/12 00:53:23;;;;;;;;;;;19.60;99.90;;;;;;4160747;28;19925;-72
2021/08/12 00:55:23;;;;;;;;;;;19.60;99.90;;;;;;4156615;28;20328;-71
2021/08/12 00:57:24;;;;;;;;;;;19.50;99.90;;;;;;4158670;28;19913;-72
2021/08/12 00:59:26;;;;;;;;;;;19.60;99.90;;;;;;4155577;28;20536;-71
2021/08/12 01:01:27;;;;;;;;;;;19.50;99.90;;;;;;4158525;28;20525;-72
2021/08/12 01:03:27;;;;;;;;;;;19.50;99.90;;;;;;4158520;28;19924;-72
2021/08/12 01:05:30;;;;;;;;;;;19.50;99.90;;;;;;4158624;28;19913;-72
2021/08/12 01:07:34;;;;;;;;;;;19.40;99.90;;;;;;4158416;28;19966;-72
2021/08/12 01:09:50;;;;;;;;;;;19.40;99.90;;;;;;4160377;28;19924;-72
2021/08/12 01:12:04;;;;;;;;;;;19.40;99.90;;;;;;4157280;28;19956;-72
2021/08/12 01:14:14;;;;;;;;;;;19.40;99.90;;;;;;4160585;28;19921;-71
2021/08/12 01:16:16;;;;;;;;;;;19.40;99.90;;;;;;4190392;28;19912;-72
2021/08/12 01:18:38;;;;;;;;;;;19.40;99.90;;;;;;4160012;28;19913;-72
2021/08/12 01:20:58;;;;;;;;;;;19.40;99.90;;;;;;4143725;28;20012;-72
2021/08/12 01:22:59;;;;;;;;;;;19.40;99.90;;;;;;4146206;28;19961;-72
2021/08/12 01:25:02;;;;;;;;;;;19.40;99.90;;;;;;4172620;28;19920;-72
2021/08/12 01:27:06;;;;;;;;;;;19.30;99.90;;;;;;4159578;28;19962;-72
2021/08/12 01:29:07;;;;;;;;;;;19.30;99.90;;;;;;4160588;28;19974;-71
2021/08/12 01:31:33;;;;;;;;;;;19.30;99.90;;;;;;4160299;28;20015;-72
2021/08/12 01:33:42;;;;;;;;;;;19.30;99.90;;;;;;4156130;28;19925;-71
2021/08/12 01:35:42;;;;;;;;;;;19.30;99.90;;;;;;4165891;28;19990;-71
2021/08/12 01:37:48;;;;;;;;;;;19.30;99.90;;;;;;4160185;28;19920;-72
2021/08/12 01:39:51;;;;;;;;;;;19.20;99.90;;;;;;4157108;28;19920;-72
2021/08/12 01:41:52;;;;;;;;;;;19.20;99.90;;;;;;4191112;28;19916;-72
2021/08/12 01:43:53;;;;;;;;;;;19.20;99.90;;;;;;4191838;28;20586;-72
2021/08/12 01:45:54;;;;;;;;;;;19.20;99.90;;;;;;4160531;28;19920;-71
2021/08/12 01:47:56;;;;;;;;;;;19.20;99.90;;;;;;4192394;28;19912;-72
2021/08/12 01:49:56;;;;;;;;;;;19.20;99.90;;;;;;4160421;28;19964;-72
2021/08/12 01:51:57;;;;;;;;;;;19.10;99.90;;;;;;4191416;28;19916;-72
2021/08/12 01:53:59;;;;;;;;;;;19.10;99.90;;;;;;4161182;28;19959;-72
2021/08/12 01:56:00;;;;;;;;;;;19.10;99.90;;;;;;4166702;28;19921;-72
2021/08/12 01:58:01;;;;;;;;;;;19.00;99.90;;;;;;4160880;28;19909;-72
2021/08/12 02:00:03;;;;;;;;;;;19.00;99.90;;;;;;4192369;28;19934;-72
2021/08/12 02:02:04;;;;;;;;;;;19.00;99.90;;;;;;4161318;28;19948;-72
2021/08/12 02:04:05;;;;;;;;;;;19.00;99.90;;;;;;4161214;28;20419;-72
2021/08/12 02:06:06;;;;;;;;;;;19.00;99.90;;;;;;4162430;28;19921;-72
2021/08/12 02:08:07;;;;;;;;;;;19.00;99.90;;;;;;4158630;28;20027;-72
2021/08/12 02:10:08;;;;;;;;;;;19.00;99.90;;;;;;4160152;28;19917;-72
2021/08/12 02:12:09;;;;;;;;;;;19.00;99.90;;;;;;4159856;28;19913;-72
2021/08/12 02:14:10;;;;;;;;;;;18.90;99.90;;;;;;4159263;28;19913;-72
2021/08/12 02:16:11;;;;;;;;;;;19.00;99.90;;;;;;4164975;28;19913;-72
2021/08/12 02:18:11;;;;;;;;;;;18.90;99.90;;;;;;4159606;28;19913;-72
2021/08/12 02:20:13;;;;;;;;;;;18.90;99.90;;;;;;4160617;28;19909;-72
2021/08/12 02:22:19;;;;;;;;;;;18.90;99.90;;;;;;4186593;28;19924;-71
2021/08/12 02:24:32;;;;;;;;;;;18.90;99.90;;;;;;4161268;28;19919;-72
2021/08/12 02:26:34;;;;;;;;;;;18.90;99.90;;;;;;4197415;28;19919;-73
2021/08/12 02:28:35;;;;;;;;;;;18.90;99.90;;;;;;4154310;28;19912;-72
2021/08/12 02:30:38;;;;;;;;;;;18.80;99.90;;;;;;4158572;28;19924;-72
2021/08/12 02:32:40;;;;;;;;;;;18.90;99.90;;;;;;4156746;28;20281;-72
2021/08/12 02:34:44;;;;;;;;;;;18.80;99.90;;;;;;4160412;28;19913;-72
2021/08/12 02:36:45;;;;;;;;;;;18.80;99.90;;;;;;4157760;28;20016;-72
2021/08/12 02:38:46;;;;;;;;;;;18.80;99.90;;;;;;4157190;28;20308;-72
2021/08/12 02:40:50;;;;;;;;;;;18.90;99.90;;;;;;4162350;28;20392;-72
2021/08/12 02:42:51;;;;;;;;;;;18.80;99.90;;;;;;4156745;28;19917;-73
2021/08/12 02:44:52;;;;;;;;;;;18.80;99.90;;;;;;4160585;28;20047;-72
2021/08/12 02:46:53;;;;;;;;;;;18.90;99.90;;;;;;4175499;28;19986;-72
2021/08/12 02:48:54;;;;;;;;;;;18.90;99.90;;;;;;4158478;28;19963;-72
2021/08/12 02:50:56;;;;;;;;;;;18.90;99.90;;;;;;4195625;28;19942;-72
2021/08/12 02:52:58;;;;;;;;;;;18.80;99.90;;;;;;4159048;28;20459;-72
2021/08/12 02:54:59;;;;;;;;;;;18.90;99.90;;;;;;4159092;28;20538;-72
2021/08/12 02:57:00;;;;;;;;;;;18.80;99.90;;;;;;4197988;28;20004;-72
2021/08/12 02:59:03;;;;;;;;;;;18.80;99.90;;;;;;4163418;28;19967;-72
2021/08/12 03:01:04;;;;;;;;;;;18.80;99.90;;;;;;4159512;28;19909;-72
2021/08/12 03:03:05;;;;;;;;;;;18.90;99.90;;;;;;4158363;28;19943;-72
2021/08/12 03:05:06;;;;;;;;;;;18.90;99.90;;;;;;4190748;28;19940;-73
2021/08/12 03:07:08;;;;;;;;;;;18.80;99.90;;;;;;4159108;28;19932;-72
2021/08/12 03:09:09;;;;;;;;;;;18.80;99.90;;;;;;4159693;28;19944;-72
2021/08/12 03:11:10;;;;;;;;;;;18.80;99.90;;;;;;4158508;28;19924;-72
2021/08/12 03:13:11;;;;;;;;;;;18.80;99.90;;;;;;4159267;28;19913;-72
2021/08/12 03:15:12;;;;;;;;;;;18.80;99.90;;;;;;4159747;28;19920;-72
2021/08/12 03:17:13;;;;;;;;;;;18.80;99.90;;;;;;4157918;28;19920;-72
2021/08/12 03:19:17;;;;;;;;;;;18.80;99.90;;;;;;4159801;28;19913;-72
2021/08/12 03:21:18;;;;;;;;;;;18.80;99.90;;;;;;4159701;28;19916;-72
2021/08/12 03:23:20;;;;;;;;;;;18.80;99.90;;;;;;4158416;28;19938;-72
2021/08/12 03:25:21;;;;;;;;;;;18.80;99.90;;;;;;4192154;28;19963;-72
2021/08/12 03:27:21;;;;;;;;;;;18.80;99.90;;;;;;4161717;28;19913;-72
2021/08/12 03:29:22;;;;;;;;;;;18.70;99.90;;;;;;4159012;28;19916;-72
2021/08/12 03:31:22;;;;;;;;;;;18.70;99.90;;;;;;4174781;28;19978;-72
2021/08/12 03:33:23;;;;;;;;;;;18.70;99.90;;;;;;4158657;28;20281;-72
2021/08/12 03:35:23;;;;;;;;;;;18.70;99.90;;;;;;4158820;28;20014;-72
2021/08/12 03:37:25;;;;;;;;;;;18.60;99.90;;;;;;4158833;28;19936;-72
2021/08/12 03:39:25;;;;;;;;;;;18.60;99.90;;;;;;4188398;28;19998;-72
2021/08/12 03:41:26;;;;;;;;;;;18.60;99.90;;;;;;4156739;28;20289;-72
2021/08/12 03:43:26;;;;;;;;;;;18.60;99.90;;;;;;4157818;28;20377;-72
2021/08/12 03:45:27;;;;;;;;;;;18.70;99.90;;;;;;4158856;28;20281;-72
2021/08/12 03:47:27;;;;;;;;;;;18.70;99.90;;;;;;4157656;28;19921;-72
2021/08/12 03:49:28;;;;;;;;;;;18.60;99.90;;;;;;4159556;28;19909;-72
2021/08/12 03:51:29;;;;;;;;;;;18.60;99.90;;;;;;4163752;28;20339;-72
2021/08/12 03:53:29;;;;;;;;;;;18.60;99.90;;;;;;4190655;28;19916;-72
2021/08/12 03:55:30;;;;;;;;;;;18.60;99.90;;;;;;4159042;28;19948;-72
2021/08/12 03:57:30;;;;;;;;;;;18.60;99.90;;;;;;4159792;28;19912;-72
2021/08/12 03:59:31;;;;;;;;;;;18.60;99.90;;;;;;4156636;28;19925;-72
2021/08/12 04:01:31;;;;;;;;;;;18.50;99.90;;;;;;4159401;28;19921;-72
2021/08/12 04:03:33;;;;;;;;;;;18.50;99.90;;;;;;4155607;28;19909;-72
2021/08/12 04:05:33;;;;;;;;;;;18.50;99.90;;;;;;4161271;28;19973;-72
2021/08/12 04:07:34;;;;;;;;;;;18.40;99.90;;;;;;4158785;28;21407;-72
2021/08/12 04:09:34;;;;;;;;;;;18.50;99.90;;;;;;4154452;28;20390;-72
2021/08/12 04:11:35;;;;;;;;;;;18.40;99.90;;;;;;4158239;28;20440;-72
2021/08/12 04:13:35;;;;;;;;;;;18.40;99.90;;;;;;4159060;28;19913;-72
2021/08/12 04:15:36;;;;;;;;;;;18.40;99.90;;;;;;4168740;28;19916;-72
2021/08/12 04:17:36;;;;;;;;;;;18.40;99.90;;;;;;4160797;28;19913;-72
2021/08/12 04:19:37;;;;;;;;;;;18.40;99.90;;;;;;4190054;28;19912;-72
2021/08/12 04:21:37;;;;;;;;;;;18.40;99.90;;;;;;4156172;28;19921;-72
2021/08/12 04:23:38;;;;;;;;;;;18.40;99.90;;;;;;4156972;28;19928;-72
2021/08/12 04:25:40;;;;;;;;;;;18.30;99.90;;;;;;4157940;28;19944;-72
2021/08/12 04:27:41;;;;;;;;;;;18.40;99.90;;;;;;4155770;28;19913;-72
2021/08/12 04:29:41;;;;;;;;;;;18.30;99.90;;;;;;4157917;28;20012;-72
2021/08/12 04:31:42;;;;;;;;;;;18.30;99.90;;;;;;4158047;28;20331;-72
2021/08/12 04:33:42;;;;;;;;;;;18.30;99.90;;;;;;4173336;28;20361;-72
2021/08/12 04:35:43;;;;;;;;;;;18.30;99.90;;;;;;4159124;28;20260;-72
2021/08/12 04:37:47;;;;;;;;;;;18.30;99.90;;;;;;4158727;28;20408;-72
2021/08/12 04:39:48;;;;;;;;;;;18.30;99.90;;;;;;4158169;28;19913;-72
2021/08/12 04:41:48;;;;;;;;;;;18.30;99.90;;;;;;4160445;28;20009;-72
2021/08/12 04:43:49;;;;;;;;;;;18.30;99.90;;;;;;4158491;28;19920;-72
2021/08/12 04:45:49;;;;;;;;;;;18.30;99.90;;;;;;4157389;28;20008;-72
2021/08/12 04:47:50;;;;;;;;;;;18.30;99.90;;;;;;4169425;28;19909;-72
2021/08/12 04:49:50;;;;;;;;;;;18.30;99.90;;;;;;4161254;28;19913;-72
2021/08/12 04:51:51;;;;;;;;;;;18.30;99.90;;;;;;4158193;28;19913;-72
2021/08/12 04:53:51;;;;;;;;;;;18.20;99.90;;;;;;4157722;28;19947;-73
2021/08/12 04:55:52;;;;;;;;;;;18.30;99.90;;;;;;4159919;28;20118;-72
2021/08/12 04:57:52;;;;;;;;;;;18.20;99.90;;;;;;4167479;28;19917;-72
2021/08/12 04:59:53;;;;;;;;;;;18.20;99.90;;;;;;4192391;28;19963;-72
2021/08/12 05:01:54;;;;;;;;;;;18.20;99.90;;;;;;4160847;28;19959;-72
2021/08/12 05:03:54;;;;;;;;;;;18.30;99.90;;;;;;4161227;28;20377;-72
2021/08/12 05:06:05;;;;;;;;;;;18.30;99.90;;;;;;4160796;28;19925;-72
2021/08/12 05:08:05;;;;;;;;;;;18.20;99.90;;;;;;4163608;28;20270;-72
2021/08/12 05:10:06;;;;;;;;;;;18.20;99.90;;;;;;4154422;28;19963;-72
2021/08/12 05:12:07;;;;;;;;;;;18.20;99.90;;;;;;4145852;28;20328;-71
2021/08/12 05:14:08;;;;;;;;;;;18.30;99.90;;;;;;4137150;28;20366;-72
2021/08/12 05:16:08;;;;;;;;;;;18.30;99.90;;;;;;4143467;28;19925;-72
2021/08/12 05:18:09;;;;;;;;;;;18.30;99.90;;;;;;4145087;28;19913;-72
2021/08/12 05:20:10;;;;;;;;;;;18.30;99.90;;;;;;4144079;28;19917;-72
2021/08/12 05:22:11;;;;;;;;;;;18.30;99.90;;;;;;4143859;28;19910;-72
2021/08/12 05:24:13;;;;;;;;;;;18.30;99.90;;;;;;4137275;28;19909;-71
2021/08/12 05:26:13;;;;;;;;;;;18.30;99.90;;;;;;4145859;28;19919;-72
2021/08/12 05:28:13;;;;;;;;;;;18.30;99.90;;;;;;4145360;28;19914;-72
2021/08/12 05:30:14;;;;;;;;;;;18.40;99.90;;;;;;4146293;28;19918;-72
2021/08/12 05:32:14;;;;;;;;;;;18.30;99.90;;;;;;4159135;28;20292;-72
2021/08/12 05:34:15;;;;;;;;;;;18.40;99.90;;;;;;4160451;28;19961;-72
2021/08/12 05:36:15;;;;;;;;;;;18.40;99.90;;;;;;4161595;28;19920;-72
2021/08/12 05:38:17;;;;;;;;;;;18.40;99.90;;;;;;4161694;28;20317;-72
2021/08/12 05:40:17;;;;;;;;;;;18.50;99.90;;;;;;4161643;28;20012;-72
2021/08/12 05:42:19;;;;;;;;;;;18.50;99.90;;;;;;4176223;28;19920;-72
2021/08/12 05:44:19;;;;;;;;;;;18.50;99.90;;;;;;4161516;28;19945;-73
2021/08/12 05:46:20;;;;;;;;;;;18.50;99.90;;;;;;4150042;28;19925;-72
2021/08/12 05:48:20;;;;;;;;;;;18.60;99.90;;;;;;4176001;28;19996;-72
2021/08/12 05:50:21;;;;;;;;;;;18.60;99.90;;;;;;4138161;28;19922;-73
2021/08/12 05:52:21;;;;;;;;;;;18.60;99.90;;;;;;4151356;28;19916;-73
2021/08/12 05:54:22;;;;;;;;;;;18.60;99.90;;;;;;4161349;28;19931;-73
2021/08/12 05:56:22;;;;;;;;;;;18.70;99.90;;;;;;4160937;28;20257;-73
2021/08/12 05:58:23;;;;;;;;;;;18.70;99.90;;;;;;4157011;28;20011;-73
2021/08/12 06:00:23;;;;;;;;;;;18.70;99.90;;;;;;4144303;28;20515;-73
2021/08/12 06:02:24;;;;;;;;;;;18.80;99.90;;;;;;4145979;28;19924;-73
2021/08/12 06:04:24;;;;;;;;;;;18.80;99.90;;;;;;4177756;28;19999;-73
2021/08/12 06:06:25;;;;;;;;;;;18.80;99.90;;;;;;4144521;28;19949;-73
2021/08/12 06:08:25;;;;;;;;;;;18.80;99.90;;;;;;4145670;28;19910;-73
2021/08/12 06:10:26;;;;;;;;;;;18.90;99.90;;;;;;4174038;28;19919;-73
2021/08/12 06:12:27;;;;;;;;;;;18.90;99.90;;;;;;4158196;28;19912;-73
2021/08/12 06:14:27;;;;;;;;;;;18.90;99.90;;;;;;4161724;28;19917;-73
2021/08/12 06:16:28;;;;;;;;;;;19.00;99.90;;;;;;4173552;28;20328;-73
2021/08/12 06:18:28;;;;;;;;;;;19.00;99.90;;;;;;4161536;28;19921;-73
2021/08/12 06:20:29;;;;;;;;;;;19.00;99.90;;;;;;4158862;28;19940;-73
2021/08/12 06:22:29;;;;;;;;;;;19.10;99.90;;;;;;4156004;28;20028;-73
2021/08/12 06:24:30;;;;;;;;;;;19.10;99.90;;;;;;4143393;28;19936;-73
2021/08/12 06:26:30;;;;;;;;;;;19.10;99.90;;;;;;4144529;28;19996;-73
2021/08/12 06:28:31;;;;;;;;;;;19.20;99.90;;;;;;4144694;28;19916;-74
2021/08/12 06:30:32;;;;;;;;;;;19.20;99.90;;;;;;4144131;28;20329;-73
2021/08/12 06:32:33;;;;;;;;;;;19.30;99.90;;;;;;4141957;28;20265;-73
2021/08/12 06:34:33;;;;;;;;;;;19.30;99.90;;;;;;4142335;28;19921;-72
2021/08/12 06:36:34;;;;;;;;;;;19.40;99.90;;;;;;4175065;28;19932;-73
2021/08/12 06:38:34;;;;;;;;;;;19.50;99.90;;;;;;4143120;28;20047;-73
2021/08/12 06:40:35;;;;;;;;;;;19.60;99.90;;;;;;4144426;28;19916;-73
2021/08/12 06:42:35;;;;;;;;;;;19.70;99.90;;;;;;4144135;28;19909;-73
2021/08/12 06:44:36;;;;;;;;;;;19.80;99.90;;;;;;4147945;28;19914;-73
2021/08/12 06:46:36;;;;;;;;;;;19.80;99.90;;;;;;4141168;28;19909;-73
2021/08/12 06:48:37;;;;;;;;;;;19.90;99.90;;;;;;4175616;28;20369;-73
2021/08/12 06:50:38;;;;;;;;;;;19.90;99.90;;;;;;4141491;28;20020;-73
2021/08/12 06:52:38;;;;;;;;;;;20.00;99.90;;;;;;4143471;28;19909;-73
2021/08/12 06:54:38;;;;;;;;;;;20.00;99.90;;;;;;4126631;28;19910;-73
2021/08/12 06:56:40;;;;;;;;;;;20.00;99.90;;;;;;4143521;28;20001;-73
2021/08/12 06:58:41;;;;;;;;;;;20.00;99.90;;;;;;4142664;28;20404;-73
2021/08/12 07:00:41;;;;;;;;;;;20.10;99.90;;;;;;4152952;28;19916;-73
2021/08/12 07:02:42;;;;;;;;;;;20.10;99.90;;;;;;4147746;28;19913;-73
2021/08/12 07:04:42;;;;;;;;;;;20.10;99.90;;;;;;4133940;28;19924;-73
2021/08/12 07:06:42;;;;;;;;;;;20.20;99.90;;;;;;4143549;28;19932;-73
2021/08/12 07:08:43;;;;;;;;;;;20.20;99.90;;;;;;4144117;28;19996;-73
2021/08/12 07:10:44;;;;;;;;;;;20.20;99.90;;;;;;4143357;28;19921;-73
2021/08/12 07:12:46;;;;;;;;;;;20.30;99.90;;;;;;4144139;28;19922;-73
2021/08/12 07:14:46;;;;;;;;;;;20.30;99.90;;;;;;4142827;28;19956;-73
2021/08/12 07:16:47;;;;;;;;;;;20.40;99.90;;;;;;4141477;28;19918;-73
2021/08/12 07:18:47;;;;;;;;;;;20.50;99.90;;;;;;4125936;28;20393;-73
2021/08/12 07:20:49;;;;;;;;;;;20.50;99.90;;;;;;4143300;28;19929;-74
2021/08/12 07:22:49;;;;;;;;;;;20.50;99.90;;;;;;4143474;28;20324;-73
2021/08/12 07:24:50;;;;;;;;;;;20.60;99.90;;;;;;4142931;28;19913;-73
2021/08/12 07:26:50;;;;;;;;;;;20.60;99.90;;;;;;4139674;28;19945;-73
2021/08/12 07:28:51;;;;;;;;;;;20.70;99.90;;;;;;4143558;28;19920;-73
2021/08/12 07:30:51;;;;;;;;;;;20.70;99.90;;;;;;4141765;28;20582;-74
2021/08/12 07:32:52;;;;;;;;;;;20.80;99.90;;;;;;4142156;28;19913;-73
2021/08/12 07:34:52;;;;;;;;;;;20.80;99.90;;;;;;4142177;28;19921;-73
2021/08/12 07:36:53;;;;;;;;;;;20.90;99.90;;;;;;4143477;28;19993;-73
2021/08/12 07:38:53;;;;;;;;;;;20.90;99.90;;;;;;4143945;28;19996;-73
2021/08/12 07:40:54;;;;;;;;;;;21.00;99.90;;;;;;4125499;28;19910;-73
2021/08/12 07:42:54;;;;;;;;;;;21.00;99.90;;;;;;4142908;28;19914;-73
2021/08/12 07:44:57;;;;;;;;;;;21.10;99.90;;;;;;4143691;28;19952;-74
2021/08/12 07:46:57;;;;;;;;;;;21.10;99.90;;;;;;4150834;28;20277;-73
2021/08/12 07:48:58;;;;;;;;;;;21.10;99.90;;;;;;4158338;28;19909;-73
2021/08/12 07:50:58;;;;;;;;;;;21.20;99.90;;;;;;4144711;28;19917;-73
2021/08/12 07:52:59;;;;;;;;;;;21.20;99.90;;;;;;4141876;28;19925;-74
2021/08/12 07:54:59;;;;;;;;;;;21.30;99.90;;;;;;4141606;28;20013;-73
2021/08/12 07:57:00;;;;;;;;;;;21.30;99.90;;;;;;4143106;28;20004;-73
2021/08/12 07:59:00;;;;;;;;;;;21.40;99.90;;;;;;4143421;28;19914;-73
2021/08/12 08:01:02;;;;;;;;;;;21.40;99.90;;;;;;4141545;28;19913;-73
2021/08/12 08:03:03;;;;;;;;;;;21.50;99.90;;;;;;4141123;28;20316;-73
2021/08/12 08:05:04;;;;;;;;;;;21.60;99.90;;;;;;4141132;28;19917;-73
2021/08/12 08:07:04;;;;;;;;;;;21.50;99.90;;;;;;4136563;28;19909;-73
2021/08/12 08:09:05;;;;;;;;;;;21.60;99.90;;;;;;4137467;28;19941;-73
2021/08/12 08:11:06;;;;;;;;;;;21.70;99.90;;;;;;4143043;28;19921;-73
2021/08/12 08:13:06;;;;;;;;;;;21.70;99.90;;;;;;4138917;28;19910;-73
2021/08/12 08:15:07;;;;;;;;;;;21.70;99.90;;;;;;4139380;28;20269;-74
2021/08/12 08:17:07;;;;;;;;;;;21.80;99.90;;;;;;4141608;28;19957;-73
2021/08/12 08:19:08;;;;;;;;;;;21.80;99.90;;;;;;4141743;28;19914;-73
2021/08/12 08:21:08;;;;;;;;;;;21.90;99.90;;;;;;4142876;28;19957;-74
2021/08/12 08:23:10;;;;;;;;;;;21.90;99.90;;;;;;4142580;28;20443;-73
2021/08/12 08:25:10;;;;;;;;;;;22.00;99.90;;;;;;4169670;28;19935;-73
2021/08/12 08:27:11;;;;;;;;;;;22.00;99.90;;;;;;4143130;28;19913;-73
2021/08/12 08:29:11;;;;;;;;;;;22.10;99.90;;;;;;4142836;28;20007;-72
2021/08/12 08:31:12;;;;;;;;;;;22.10;99.90;;;;;;4145394;28;19936;-72
2021/08/12 08:33:12;;;;;;;;;;;22.20;99.90;;;;;;4145952;28;19913;-72
2021/08/12 08:35:13;;;;;;;;;;;22.20;99.90;;;;;;4146247;28;19910;-72
2021/08/12 08:37:14;;;;;;;;;;;22.30;99.90;;;;;;4146236;28;19927;-72
2021/08/12 08:39:15;;;;;;;;;;;22.30;99.90;;;;;;4139902;28;19921;-72
2021/08/12 08:41:15;;;;;;;;;;;22.40;99.90;;;;;;4146229;28;19932;-76
2021/08/12 08:43:17;;;;;;;;;;;22.50;99.90;;;;;;4145207;28;20270;-76
2021/08/12 08:45:28;;;;;;;;;;;22.50;99.90;;;;;;4146640;28;19910;-76
2021/08/12 08:47:29;;;;;;;;;;;22.60;99.90;;;;;;4146610;28;19916;-77
2021/08/12 08:49:30;;;;;;;;;;;22.70;99.90;;;;;;4144152;28;19960;-73
2021/08/12 08:51:33;;;;;;;;;;;22.80;99.90;;;;;;4145900;28;19924;-72
2021/08/12 08:53:34;;;;;;;;;;;22.80;99.90;;;;;;4145513;28;19931;-73
2021/08/12 08:55:35;;;;;;;;;;;22.90;99.90;;;;;;4146118;28;20317;-73
2021/08/12 08:57:36;;;;;;;;;;;23.00;99.90;;;;;;4145473;28;19909;-73
2021/08/12 08:59:37;;;;;;;;;;;23.10;99.90;;;;;;4145485;28;20400;-73
2021/08/12 09:01:38;;;;;;;;;;;23.10;99.90;;;;;;4139935;28;19918;-73
2021/08/12 09:03:38;;;;;;;;;;;23.20;99.90;;;;;;4143490;28;19920;-73
2021/08/12 09:05:39;;;;;;;;;;;23.30;99.90;;;;;;4144390;28;19956;-73
2021/08/12 09:07:39;;;;;;;;;;;23.40;99.90;;;;;;4145688;28;19910;-73
2021/08/12 09:09:40;;;;;;;;;;;23.40;99.90;;;;;;4145711;28;19996;-73
2021/08/12 09:11:41;;;;;;;;;;;23.50;99.90;;;;;;4141065;28;19932;-73
2021/08/12 09:13:42;;;;;;;;;;;23.60;99.90;;;;;;4140670;28;19921;-73
2021/08/12 09:15:43;;;;;;;;;;;23.60;99.90;;;;;;4145916;28;20409;-73
2021/08/12 09:17:44;;;;;;;;;;;23.70;99.90;;;;;;4144846;28;19920;-73
2021/08/12 09:20:05;;;;;;;;;;;23.80;99.90;;;;;;4144477;28;19929;-74
2021/08/12 09:22:06;;;;;;;;;;;23.90;99.90;;;;;;4142327;28;19999;-73
2021/08/12 09:24:07;;;;;;;;;;;24.00;99.90;;;;;;4143898;28;19910;-73
2021/08/12 09:26:17;;;;;;;;;;;24.10;99.90;;;;;;4145111;28;20372;-73
2021/08/12 09:28:28;;;;;;;;;;;24.20;99.90;;;;;;4144854;28;19909;-73
2021/08/12 09:30:28;;;;;;;;;;;24.30;99.90;;;;;;4144347;28;20266;-73
2021/08/12 09:32:29;;;;;;;;;;;24.30;99.90;;;;;;4175691;28;19985;-73
2021/08/12 09:34:43;;;;;;;;;;;24.40;99.90;;;;;;4126683;28;20541;-73
2021/08/12 09:36:44;;;;;;;;;;;24.40;99.90;;;;;;4143389;28;20346;-73
2021/08/12 09:38:44;;;;;;;;;;;24.50;99.90;;;;;;4143479;28;19914;-73
2021/08/12 09:40:50;;;;;;;;;;;24.60;99.90;;;;;;4143571;28;19953;-73
2021/08/12 09:42:58;;;;;;;;;;;24.70;99.90;;;;;;4144302;28;19914;-73
2021/08/12 09:44:58;;;;;;;;;;;24.80;99.90;;;;;;4144315;28;20377;-73
2021/08/12 09:47:01;;;;;;;;;;;24.90;99.90;;;;;;4140506;28;19967;-73
2021/08/12 09:49:02;;;;;;;;;;;25.00;99.90;;;;;;4144816;28;20029;-73
2021/08/12 09:51:06;;;;;;;;;;;25.00;99.90;;;;;;4143105;28;19956;-73
2021/08/12 09:53:07;;;;;;;;;;;25.10;99.90;;;;;;4143409;28;19919;-74
2021/08/12 09:55:11;;;;;;;;;;;25.20;99.90;;;;;;4143533;28;20565;-73
2021/08/12 09:57:15;;;;;;;;;;;25.20;99.90;;;;;;4142647;28;19913;-73
2021/08/12 09:59:16;;;;;;;;;;;25.30;99.90;;;;;;4141811;28;20343;-73
2021/08/12 10:01:18;;;;;;;;;;;25.40;99.90;;;;;;4144599;28;19909;-72
2021/08/12 10:03:31;;;;;;;;;;;25.40;99.90;;;;;;4174091;28;20385;-73
2021/08/12 10:05:35;;;;;;;;;;;25.50;99.90;;;;;;4139261;28;21488;-74
2021/08/12 10:07:36;;;;;;;;;;;25.50;99.90;;;;;;4138061;28;19918;-73
2021/08/12 10:09:40;;;;;;;;;;;25.60;99.90;;;;;;4125416;28;19916;-73
2021/08/12 10:11:41;;;;;;;;;;;25.60;99.90;;;;;;4144248;28;19921;-73
2021/08/12 10:13:42;;;;;;;;;;;25.70;99.90;;;;;;4158893;28;20462;-73
2021/08/12 10:15:48;;;;;;;;;;;25.70;99.90;;;;;;4143617;28;20432;-73
2021/08/12 10:17:49;;;;;;;;;;;25.80;99.90;;;;;;4142355;28;20521;-74
2021/08/12 10:19:50;;;;;;;;;;;25.80;99.90;;;;;;4142706;28;19917;-73
2021/08/12 10:21:51;;;;;;;;;;;25.90;99.90;;;;;;4143642;28;19916;-73
2021/08/12 10:23:54;;;;;;;;;;;25.90;99.90;;;;;;4141269;28;19909;-74
2021/08/12 10:25:58;;;;;;;;;;;26.00;99.90;;;;;;4154464;28;19914;-73
2021/08/12 10:28:01;;;;;;;;;;;26.00;99.90;;;;;;4144087;28;19945;-73
2021/08/12 10:30:01;;;;;;;;;;;26.00;99.90;;;;;;4153833;28;19915;-73
2021/08/12 10:32:03;;;;;;;;;;;26.10;99.90;;;;;;4155027;28;20012;-73
2021/08/12 10:34:04;;;;;;;;;;;26.10;99.90;;;;;;4143557;28;19921;-73
2021/08/12 10:36:04;;;;;;;;;;;26.10;99.90;;;;;;4158149;28;19913;-73
2021/08/12 10:38:05;;;;;;;;;;;26.20;99.90;;;;;;4141881;28;20004;-73
2021/08/12 10:40:08;;;;;;;;;;;26.30;99.90;;;;;;4143634;28;19963;-73
2021/08/12 10:42:08;;;;;;;;;;;26.30;99.90;;;;;;4143481;28;19919;-73
2021/08/12 10:44:09;;;;;;;;;;;26.30;99.90;;;;;;4144017;28;19992;-73
2021/08/12 10:46:10;;;;;;;;;;;26.40;99.90;;;;;;4143771;28;19913;-73
2021/08/12 10:48:18;;;;;;;;;;;26.40;99.90;;;;;;4142002;28;19913;-74
2021/08/12 10:50:34;;;;;;;;;;;26.40;99.90;;;;;;4157693;28;19913;-73
2021/08/12 10:52:54;;;;;;;;;;;26.50;99.90;;;;;;4142227;28;19918;-73
2021/08/12 10:55:15;;;;;;;;;;;26.50;99.90;;;;;;4146564;28;19963;-73
2021/08/12 10:57:16;;;;;;;;;;;26.50;99.40;;;;;;4139268;28;19921;-73
2021/08/12 10:59:33;;;;;;;;;;;26.50;99.80;;;;;;4142902;28;19913;-73
2021/08/12 11:01:38;;;;;;;;;;;26.60;99.90;;;;;;4147640;28;19921;-73
2021/08/12 11:03:43;;;;;;;;;;;26.60;99.90;;;;;;4141493;28;19972;-73
2021/08/12 11:06:03;;;;;;;;;;;26.60;99.90;;;;;;4149844;28;20053;-73
2021/08/12 11:08:03;;;;;;;;;;;26.60;99.90;;;;;;4149531;28;19990;-73
2021/08/12 11:10:09;;;;;;;;;;;26.60;99.90;;;;;;4174448;28;19912;-73
2021/08/12 11:12:09;;;;;;;;;;;26.70;99.90;;;;;;4155873;28;19913;-73
2021/08/12 11:14:11;;;;;;;;;;;26.70;99.30;;;;;;4143944;28;19972;-73
2021/08/12 11:16:11;;;;;;;;;;;26.70;99.40;;;;;;4138517;28;19913;-73
2021/08/12 11:18:13;;;;;;;;;;;26.80;98.90;;;;;;4141483;28;20004;-73
2021/08/12 11:20:29;;;;;;;;;;;26.70;99.90;;;;;;4135294;28;19969;-73
2021/08/12 11:22:31;;;;;;;;;;;26.70;98.20;;;;;;4148224;28;20292;-73
2021/08/12 11:24:31;;;;;;;;;;;26.70;98.00;;;;;;4142264;28;19928;-73
2021/08/12 11:26:41;;;;;;;;;;;26.60;97.20;;;;;;4144704;28;20528;-73
2021/08/12 11:28:41;;;;;;;;;;;26.60;96.50;;;;;;4153357;28;20620;-73
2021/08/12 11:30:42;;;;;;;;;;;26.60;97.20;;;;;;4158802;28;19913;-73
2021/08/12 11:33:02;;;;;;;;;;;26.60;98.10;;;;;;4159490;28;19950;-73
2021/08/12 11:35:03;;;;;;;;;;;26.60;95.90;;;;;;4156692;28;20498;-74
2021/08/12 11:37:03;;;;;;;;;;;26.60;96.30;;;;;;4156456;28;19952;-73
2021/08/12 11:39:05;;;;;;;;;;;26.60;96.20;;;;;;4158267;28;19928;-73
2021/08/12 11:41:06;;;;;;;;;;;26.60;96.10;;;;;;4155813;28;19925;-73
2021/08/12 11:43:06;;;;;;;;;;;26.60;95.30;;;;;;4145379;28;20376;-73
2021/08/12 11:45:11;;;;;;;;;;;26.60;96.90;;;;;;4173316;28;19924;-73
2021/08/12 11:47:11;;;;;;;;;;;26.50;95.40;;;;;;4136293;28;20404;-73
2021/08/12 11:49:13;;;;;;;;;;;26.50;96.90;;;;;;4141491;28;19913;-73